Flight Track Log - Related Links

Times and Time Zones

All times are in EDT time to prevent confusion due to time zone crossing. See the TPA725 flight status page for this flight to view local times or setup timezone preferences in your user account.

Time Position Orientation Groundspeed Altitude Reporting Facility
EDT Latitude Longitude Course Direction KTS MPH feet Rate Location/Type
Tue 11:38:21 AM 25.7920 -80.3060 174° South  Level FlightAware ADS-B
Tue 11:40:24 AM 25.7900 -80.3060 180° South 10 12 104 Level FlightAware ADS-B
Tue 11:41:53 AM 25.7890 -80.3060 180° South 10 12 127 Level FlightAware ADS-B
Tue 11:44:00 AM 25.5918 -80.1284 119° Southeast  Level Estimated
Tue 11:44:14 AM 25.7880 -80.3060 119° Southeast 20 23  Level FlightAware ADS-B
Tue 11:44:42 AM 25.7880 -80.3070 270° West 25 29 213 Level FlightAware ADS-B
Tue 11:45:09 AM 25.7880 -80.3090 270° West 34 39 232 Level FlightAware ADS-B
Tue 11:45:35 AM 25.7880 -80.3130 270° West 34 39 254 Level FlightAware ADS-B
Tue 11:46:31 AM 25.7880 -80.3150 270° West 26 30 280 Level FlightAware ADS-B
Tue 11:46:56 AM 25.7860 -80.3150 180° South 25 29 358 Level FlightAware ADS-B
Tue 11:48:43 AM 25.7870 -80.3050 84° East 105 121 409 Level FlightAware ADS-B
Tue 11:49:08 AM 25.7870 -80.2870 90° East 176 203 1,043 Level FlightAware ADS-B
Tue 11:49:52 AM 25.7810 -80.2480 100° East 180 207 1,200 1,324 Climbing FlightAware ADS-B
Tue 11:50:16 AM 25.7730 -80.2260 112° Southeast 205 236 1,500 1,263 Climbing FlightAware ADS-B
Tue 11:51:08 AM 25.7530 -80.1670 111° Southeast 255 293 2,800 1,594 Climbing FlightAware ADS-B
Tue 11:51:20 AM 25.7500 -80.1520 103° East 261 300 3,200 2,368 Climbing FlightAware ADS-B
Tue 11:51:46 AM 25.7420 -80.1180 105° East 266 306 4,300 2,538 Climbing FlightAware ADS-B
Tue 11:52:12 AM 25.7350 -80.0830 103° East 270 311 5,400 2,478 Climbing FlightAware ADS-B
Tue 11:52:32 AM 25.7290 -80.0550 103° East 274 315 6,200 2,327 Climbing FlightAware ADS-B
Tue 11:53:01 AM 25.7200 -80.0160 104° East 278 320 7,300 2,250 Climbing FlightAware ADS-B
Tue 11:53:28 AM 25.7120 -79.9780 103° East 286 329 8,300 2,154 Climbing FlightAware ADS-B
Tue 11:53:40 AM 25.7080 -79.9610 105° East 287 330 8,700 2,100 Climbing FlightAware ADS-B
Tue 11:54:08 AM 25.6990 -79.9200 104° East 294 338 9,700 1,690 Climbing FlightAware ADS-B
Tue 11:54:51 AM 25.6850 -79.8560 104° East 321 369 10,700 1,224 Climbing FlightAware ADS-B
Tue 11:55:46 AM 25.6630 -79.7590 104° East 367 422 11,700 1,455 Climbing FlightAware ADS-B
Tue 11:56:30 AM 25.6450 -79.6780 104° East 374 430 13,100 1,909 Climbing FlightAware ADS-B
Tue 11:57:14 AM 25.6260 -79.5960 104° East 382 440 14,500 1,814 Climbing FlightAware ADS-B
Tue 11:57:56 AM 25.6080 -79.5130 104° East 390 449 15,700 1,756 Climbing FlightAware ADS-B
Tue 11:58:36 AM 25.5900 -79.4350 104° East 397 457 16,900 1,714 Climbing FlightAware ADS-B
Tue 11:59:20 AM 25.5710 -79.3490 104° East 404 465 18,100 1,537 Climbing FlightAware ADS-B
Tue 11:59:58 AM 25.5540 -79.2730 104° East 410 472 19,000 1,435 Climbing FlightAware ADS-B
Tue 12:00:52 PM 25.5010 -79.1790 122° Southeast 420 483 20,300 1,339 Climbing FlightAware ADS-B
Tue 12:01:50 PM 25.4230 -79.0800 131° Southeast 429 494 21,500 1,266 Climbing FlightAware ADS-B
Tue 12:03:00 PM 25.3310 -78.9610 131° Southeast 445 512 23,000 1,252 Climbing FlightAware ADS-B
Tue 12:03:45 PM 25.2710 -78.8840 131° Southeast 449 517 23,900 988 Climbing FlightAware ADS-B
Tue 12:04:25 PM 25.2170 -78.8140 130° Southeast 455 524 24,400 800 Climbing FlightAware ADS-B
Tue 12:05:00 PM 25.1660 -78.7490 131° Southeast 467 537 24,900 988 Climbing FlightAware ADS-B
Tue 12:05:50 PM 25.0960 -78.6600 131° Southeast 471 542 25,800 682 Climbing FlightAware ADS-B
Tue 12:06:28 PM 25.0530 -78.6020 129° Southeast 473 544 25,900 61 Climbing FlightAware ADS-B
Tue 12:07:29 PM 24.9800 -78.5060 130° Southeast 473 544 25,900  Level FlightAware ADS-B
Tue 12:08:07 PM 24.9340 -78.4470 131° Southeast 473 544 25,900  Level FlightAware ADS-B
Tue 12:09:08 PM 24.8610 -78.3510 130° Southeast 473 544 25,900  Level FlightAware ADS-B
Tue 12:09:43 PM 24.8190 -78.2960 130° Southeast 473 544 25,900 2,512 Level FlightAware ADS-B
Tue 12:10:34 PM 24.6767 -78.1306 130° Southeast 493 567 29,500 2,378 Climbing Miami Center
Tue 12:11:34 PM 24.5858 -78.0153 131° Southeast 493 567 30,300 800 Climbing Miami Center
Tue 12:12:34 PM 24.4947 -77.9003 131° Southeast 493 567 31,100 900 Climbing Miami Center
Tue 12:13:34 PM 24.4014 -77.7831 131° Southeast 493 567 32,100 1,050 Climbing Miami Center
Tue 12:14:34 PM 24.3081 -77.6683 132° Southeast 498 573 33,200 950 Climbing Miami Center
Tue 12:15:34 PM 24.2186 -77.5539 131° Southeast 493 567 34,000 950 Climbing Miami Center
Tue 12:16:34 PM 24.1250 -77.4394 132° Southeast 493 567 35,100 1,000 Climbing Miami Center
Tue 12:17:34 PM 24.0336 -77.3231 131° Southeast 493 567 36,000 950 Climbing Miami Center
Tue 12:18:34 PM 23.9419 -77.2089 131° Southeast 493 567 37,000 500 Climbing Miami Center
Tue 12:19:34 PM 23.8628 -77.1067 130° Southeast 487 560 37,000  Level Miami Center
Tue 12:20:34 PM 23.7708 -76.9953 132° Southeast 487 560 37,000  Level Miami Center
Tue 12:21:34 PM 23.6811 -76.8839 131° Southeast 492 566 37,000  Level Miami Center
Tue 12:22:34 PM 23.5911 -76.7728 131° Southeast 492 566 37,000  Level Miami Center
Tue 12:23:34 PM 23.4992 -76.6594 131° Southeast 492 566 37,000  Level Miami Center
Tue 12:24:34 PM 23.4069 -76.5464 132° Southeast 492 566 37,000  Level Miami Center
Tue 12:25:34 PM 23.3147 -76.4358 132° Southeast 492 566 37,000  Level Miami Center
Tue 12:26:34 PM 23.2225 -76.3231 132° Southeast 492 566 37,000  Level Miami Center
Tue 12:27:34 PM 23.1300 -76.2106 132° Southeast 492 566 37,000  Level Miami Center
Tue 12:28:34 PM 23.0397 -76.1003 132° Southeast 492 566 37,000  Level Miami Center
Tue 12:29:34 PM 22.9450 -75.9903 133° Southeast 492 566 37,000  Level Miami Center
Tue 12:30:34 PM 22.8544 -75.8783 131° Southeast 492 566 37,000  Level Miami Center
Tue 12:31:34 PM 22.7617 -75.7664 132° Southeast 492 566 37,000  Level Miami Center
Tue 12:32:34 PM 22.6669 -75.6522 132° Southeast 492 566 37,000  Level Miami Center
Tue 12:33:34 PM 22.5739 -75.5408 132° Southeast 492 566 37,000  Level Miami Center
Tue 12:34:34 PM 22.4811 -75.4292 132° Southeast 492 566 37,000  Level Miami Center
Tue 12:35:34 PM 22.3881 -75.3181 132° Southeast 492 566 37,000  Level Miami Center
Tue 12:36:34 PM 22.2928 -75.2092 133° Southeast 492 566 37,000  Level Miami Center
Tue 12:37:34 PM 22.1997 -75.0958 132° Southeast 492 566 37,000  Level Miami Center
Tue 12:38:34 PM 22.1064 -74.9828 132° Southeast 492 566 37,000  Level Miami Center
Tue 12:39:34 PM 22.0069 -74.8744 135° Southeast 492 566 37,000  Level Miami Center
Tue 12:40:34 PM 21.9136 -74.7639 132° Southeast 497 572 37,000  Level Miami Center
Tue 12:41:34 PM 21.8181 -74.6561 134° Southeast 502 578 37,000 500 Level Miami Center
Tue 12:42:34 PM 21.7078 -74.5417 136° Southeast 502 578 38,000 900 Climbing Miami Center
Tue 12:43:34 PM 21.5997 -74.4453 140° Southeast 502 578 38,800 450 Climbing Miami Center
Tue 12:44:34 PM 21.4919 -74.3558 142° Southeast 502 578 38,900 100 Climbing Miami Center
Tue 12:45:34 PM 21.3797 -74.2597 141° Southeast 502 578 39,000 50 Climbing Miami Center
Tue 12:46:34 PM 21.2714 -74.1661 141° Southeast 497 572 39,000  Level Miami Center
Tue 12:47:34 PM 21.1636 -74.0769 142° Southeast 497 572 39,000  Level Miami Center
Tue 12:48:34 PM 21.0553 -73.9858 142° Southeast 497 572 39,000  Level Miami Center
Tue 12:49:34 PM 20.9450 -73.8903 141° Southeast 497 572 39,000  Level Miami Center
Tue 12:50:34 PM 20.8389 -73.8039 143° Southeast 497 572 39,000  Level Miami Center
Tue 12:51:34 PM 20.7286 -73.7111 142° Southeast 497 572 39,000  Level Miami Center
Tue 12:52:34 PM 20.6203 -73.6181 141° Southeast 497 572 39,000  Level Miami Center
Tue 12:53:34 PM 20.5119 -73.5278 142° Southeast 497 572 39,000  Level Miami Center
Tue 12:54:34 PM 20.4014 -73.4353 142° Southeast 497 572 39,000  Level Miami Center
Tue 12:55:34 PM 20.2931 -73.3408 141° Southeast 497 572 39,000  Level Miami Center
Tue 12:56:34 PM 20.1867 -73.2528 142° Southeast 497 572 39,000 -167 Level Miami Center
Tue 12:58:00 PM 20.0382 -73.1509 153° Southeast  Level FlightAware Approximate
Tue 01:05:00 PM 19.2738 -72.7304 153° Southeast  Level FlightAware Approximate
Tue 01:06:00 PM 19.1646 -72.6707 153° Southeast  Level FlightAware Approximate
Tue 01:07:00 PM 19.0553 -72.6110 153° Southeast  Level FlightAware Approximate
Tue 01:08:00 PM 18.9459 -72.5514 153° Southeast  Level FlightAware Approximate
Tue 01:09:00 PM 18.8366 -72.4919 153° Southeast  Level FlightAware Approximate
Tue 01:10:00 PM 18.7273 -72.4325 153° Southeast  Level FlightAware Approximate
Tue 01:11:00 PM 18.6179 -72.3731 153° Southeast  Level FlightAware Approximate
Tue 01:12:00 PM 18.5085 -72.3138 153° Southeast  Level FlightAware Approximate
Tue 01:13:00 PM 18.3991 -72.2546 153° Southeast  Level FlightAware Approximate
Tue 01:14:00 PM 18.2897 -72.1955 153° Southeast  Level FlightAware Approximate
Tue 01:15:00 PM 18.1802 -72.1364 153° Southeast  Level FlightAware Approximate
Tue 01:16:00 PM 18.0707 -72.0774 153° Southeast  Level FlightAware Approximate
Tue 01:17:00 PM 17.9613 -72.0185 153° Southeast  Level FlightAware Approximate
Tue 01:18:00 PM 17.8518 -71.9597 153° Southeast  Level FlightAware Approximate
Tue 01:19:00 PM 17.7423 -71.9009 153° Southeast  Level FlightAware Approximate
Tue 01:20:00 PM 17.6327 -71.8422 153° Southeast  Level FlightAware Approximate
Tue 01:21:00 PM 17.5232 -71.7836 153° Southeast  Level FlightAware Approximate
Tue 01:22:00 PM 17.4136 -71.7251 153° Southeast  Level FlightAware Approximate
Tue 01:23:00 PM 17.3042 -71.6662 153° Southeast  Level FlightAware Approximate
Tue 01:24:00 PM 17.1949 -71.6072 153° Southeast  Level FlightAware Approximate
Tue 01:25:00 PM 17.0856 -71.5482 153° Southeast  Level FlightAware Approximate
Tue 01:26:00 PM 16.9763 -71.4893 153° Southeast  Level FlightAware Approximate
Tue 01:27:00 PM 16.8669 -71.4305 153° Southeast  Level FlightAware Approximate
Tue 01:28:00 PM 16.7576 -71.3717 153° Southeast  Level FlightAware Approximate
Tue 01:29:00 PM 16.6482 -71.3130 153° Southeast  Level FlightAware Approximate
Tue 01:30:00 PM 16.5388 -71.2544 153° Southeast  Level FlightAware Approximate
Tue 01:31:00 PM 16.4294 -71.1958 153° Southeast  Level FlightAware Approximate
Tue 01:32:00 PM 16.3200 -71.1373 153° Southeast  Level FlightAware Approximate
Tue 01:33:00 PM 16.2105 -71.0789 153° Southeast  Level FlightAware Approximate
Tue 01:34:00 PM 16.1011 -71.0205 153° Southeast  Level FlightAware Approximate
Tue 01:35:00 PM 15.9915 -70.9622 153° Southeast  Level FlightAware Approximate
Tue 01:36:00 PM 15.8817 -70.9048 153° Southeast  Level FlightAware Approximate
Tue 01:37:00 PM 15.7718 -70.8473 153° Southeast  Level FlightAware Approximate
Tue 01:38:00 PM 15.6619 -70.7900 153° Southeast  Level FlightAware Approximate
Tue 01:39:00 PM 15.5520 -70.7327 153° Southeast  Level FlightAware Approximate
Tue 01:40:00 PM 15.4421 -70.6755 153° Southeast  Level FlightAware Approximate
Tue 01:41:00 PM 15.3321 -70.6183 153° Southeast  Level FlightAware Approximate
Tue 01:42:00 PM 15.2222 -70.5612 153° Southeast  Level FlightAware Approximate
Tue 01:43:00 PM 15.1122 -70.5041 153° Southeast  Level FlightAware Approximate
Tue 01:44:00 PM 15.0022 -70.4472 153° Southeast  Level FlightAware Approximate
Tue 01:45:00 PM 14.8922 -70.3902 153° Southeast  Level FlightAware Approximate
Tue 01:46:00 PM 14.7822 -70.3334 153° Southeast  Level FlightAware Approximate
Tue 01:47:00 PM 14.6722 -70.2765 153° Southeast  Level FlightAware Approximate
Tue 01:48:00 PM 14.5622 -70.2198 153° Southeast  Level FlightAware Approximate
Tue 01:49:00 PM 14.4521 -70.1631 153° Southeast  Level FlightAware Approximate
Tue 01:50:00 PM 14.3421 -70.1064 153° Southeast  Level FlightAware Approximate
Tue 01:51:00 PM 14.2320 -70.0498 154° Southeast  Level FlightAware Approximate
Tue 01:52:00 PM 14.1219 -69.9933 154° Southeast  Level FlightAware Approximate
Tue 01:53:00 PM 14.0118 -69.9368 154° Southeast  Level FlightAware Approximate
Tue 01:54:00 PM 13.9017 -69.8804 154° Southeast  Level FlightAware Approximate
Tue 01:55:00 PM 13.7915 -69.8240 154° Southeast  Level FlightAware Approximate
Tue 01:56:00 PM 13.6814 -69.7677 154° Southeast  Level FlightAware Approximate
Tue 01:57:00 PM 13.5712 -69.7114 154° Southeast  Level FlightAware Approximate
Tue 01:58:00 PM 13.4611 -69.6552 154° Southeast  Level FlightAware Approximate
Tue 01:59:00 PM 13.3509 -69.5990 154° Southeast  Level FlightAware Approximate
Tue 02:00:00 PM 13.2407 -69.5429 154° Southeast  Level FlightAware Approximate
Tue 02:01:00 PM 13.1305 -69.4869 154° Southeast  Level FlightAware Approximate
Tue 02:02:00 PM 13.0203 -69.4309 154° Southeast  Level FlightAware Approximate
Tue 02:03:00 PM 12.9100 -69.3749 154° Southeast  Level FlightAware Approximate
Tue 02:04:00 PM 12.7998 -69.3190 154° Southeast  Level FlightAware Approximate
Tue 02:05:00 PM 12.6896 -69.2631 154° Southeast  Level FlightAware Approximate
Tue 02:06:00 PM 12.5793 -69.2073 154° Southeast  Level FlightAware Approximate
Tue 02:07:00 PM 12.4690 -69.1515 154° Southeast  Level FlightAware Approximate
Tue 02:08:00 PM 12.3598 -69.0937 151° Southeast  Level FlightAware Approximate
Tue 02:09:00 PM 12.2515 -69.0341 154° Southeast  Level FlightAware Approximate
Tue 02:10:00 PM 12.1427 -68.9756 150° Southeast  Level FlightAware Approximate
Tue 02:11:00 PM 12.0352 -68.9146 152° Southeast  Level FlightAware Approximate
Tue 02:12:00 PM 11.9267 -68.8555 152° Southeast  Level FlightAware Approximate
Tue 02:12:18 PM 11.4650 -68.5870 157° South 422 486 26,200  Level FlightAware ADS-B
Tue 02:13:00 PM 11.8137 -68.8059 157° South  Level FlightAware Approximate
Tue 02:13:00 PM 11.3960 -68.5480 151° Southeast 411 473 25,000  Level FlightAware ADS-B
Tue 02:13:43 PM 11.3270 -68.5090 151° Southeast 403 464 23,900 -1,610 Descending FlightAware ADS-B
Tue 02:14:22 PM 11.2620 -68.4710 150° Southeast 394 453 22,800 -1,516 Descending FlightAware ADS-B
Tue 02:15:18 PM 11.1750 -68.4220 151° Southeast 385 443 21,500 -1,592 Descending FlightAware ADS-B
Tue 02:16:00 PM 11.1050 -68.3870 154° Southeast 394 453 20,200 -1,841 Descending FlightAware ADS-B
Tue 02:16:46 PM 11.0290 -68.3490 154° Southeast 385 443 18,800 -1,674 Descending FlightAware ADS-B
Tue 02:17:26 PM 10.9680 -68.3180 153° Southeast 374 430 17,800 -1,537 Descending FlightAware ADS-B
Tue 02:18:08 PM 10.9030 -68.2860 154° Southeast 365 420 16,700 -1,500 Descending FlightAware ADS-B
Tue 02:18:46 PM 10.8460 -68.2570 153° Southeast 356 410 15,800 -1,412 Descending FlightAware ADS-B
Tue 02:19:33 PM 10.7770 -68.2230 154° Southeast 348 400 14,700 -1,465 Descending FlightAware ADS-B
Tue 02:20:12 PM 10.7200 -68.1950 154° Southeast 340 391 13,700 -759 Descending FlightAware ADS-B
Tue 02:20:52 PM 10.6740 -68.1710 153° Southeast 340 391 13,700  Level FlightAware ADS-B
Tue 02:21:38 PM 10.6190 -68.1420 153° Southeast 340 391 13,700  Level FlightAware ADS-B
Tue 02:24:00 PM 10.3494 -68.0276 162° South  Level FlightAware Approximate
Tue 02:25:00 PM 10.2372 -67.9770 154° Southeast  Level FlightAware Approximate
Tue 02:26:00 PM 10.1500 -67.9167 144° Southeast  Level FlightAware Approximate
Tue 02:27:00 PM 10.1497 -67.9284 144° Southeast  Level Estimated
Tue 02:28:00 PM 10.1497 -67.9284 144° Southeast  Level Estimated
Tue 02:29:00 PM 10.1497 -67.9284 144° Southeast  Level Estimated
Tue 02:30:00 PM 10.1497 -67.9284 144° Southeast  Level Estimated
Tue 02:31:00 PM 10.1497 -67.9284 144° Southeast  Level Estimated
Tue 02:32:00 PM 10.1497 -67.9284 144° Southeast  Level Estimated
Tue 02:33:00 PM 10.1497 -67.9284 144° Southeast  Level Estimated
Tue 02:34:00 PM 10.1497 -67.9284 144° Southeast  Level Estimated
Tue 02:35:00 PM 10.1497 -67.9284 144° Southeast  Level Estimated
Tue 02:36:00 PM 10.1497 -67.9284 144° Southeast  Level Estimated
Tue 02:37:00 PM 10.1497 -67.9284 144° Southeast  Level Estimated
Tue 02:38:00 PM 10.1497 -67.9284 144° Southeast  Level Estimated
Tue 02:39:00 PM 10.1497 -67.9284 144° Southeast  Level Estimated
Tue 02:40:00 PM 10.1497 -67.9284 144° Southeast  Level Estimated
Tue 02:41:00 PM 10.1497 -67.9284 144° Southeast  Level Estimated
Tue 02:42:00 PM 10.1497 -67.9284 144° Southeast  Level Estimated
Tue 02:43:00 PM 10.1497 -67.9284 144° Southeast  Level Estimated
Tue 02:44:00 PM 10.1497 -67.9284 144° Southeast  Level Estimated
Tue 02:45:00 PM 10.1497 -67.9284 144° Southeast  Level Estimated
Tue 02:46:00 PM 10.1497 -67.9284 144° Southeast  Level Estimated
Tue 02:47:00 PM 10.1497 -67.9284 144° Southeast  Level Estimated

Login

Don't have an account? Register now (free) for customized features, flight alerts, and more!